createdAt,value
2023-05-06T00:01:49.458Z,69.43
2023-05-06T00:04:17.346Z,69.39
2023-05-06T00:06:45.105Z,69.61
2023-05-06T00:09:13.486Z,69.74
2023-05-06T00:11:41.481Z,69.76
2023-05-06T00:14:09.476Z,69.89
2023-05-06T00:16:37.323Z,69.59
2023-05-06T00:19:05.946Z,69.98
2023-05-06T00:21:33.897Z,70.25
2023-05-06T00:24:01.724Z,70.28
2023-05-06T00:26:29.449Z,70.35
2023-05-06T00:28:57.176Z,70.72
2023-05-06T00:31:25.050Z,70.57
2023-05-06T00:33:52.904Z,70.63
2023-05-06T00:36:20.656Z,70.15
2023-05-06T00:38:48.358Z,70.82
2023-05-06T00:41:16.345Z,71.04
2023-05-06T00:43:44.190Z,71.33
2023-05-06T00:46:15.496Z,71.66
2023-05-06T00:48:44.797Z,71.83
2023-05-06T00:51:12.880Z,71.84
2023-05-06T00:53:41.220Z,71.98
2023-05-06T00:56:09.276Z,71.91
2023-05-06T00:58:37.936Z,72.10
2023-05-06T01:01:05.807Z,71.81
2023-05-06T01:03:33.788Z,71.72
2023-05-06T01:06:09.097Z,72.08
2023-05-06T01:08:57.657Z,72.16
2023-05-06T01:11:53.013Z,71.70
2023-05-06T01:14:24.509Z,71.54
2023-05-06T01:17:00.231Z,71.67
2023-05-06T01:19:48.958Z,71.81
2023-05-06T01:22:17.109Z,72.12
2023-05-06T01:24:47.166Z,72.31
2023-05-06T01:27:16.807Z,71.65
2023-05-06T01:29:46.256Z,71.60
2023-05-06T01:32:35.190Z,72.28
2023-05-06T01:35:22.619Z,72.24
2023-05-06T01:38:03.316Z,72.01
2023-05-06T01:40:33.296Z,72.11
2023-05-06T01:43:04.981Z,72.38
2023-05-06T01:45:35.782Z,72.40
2023-05-06T01:48:05.679Z,72.49
2023-05-06T01:50:34.803Z,72.67
2023-05-06T01:53:03.496Z,72.18
2023-05-06T01:55:32.287Z,72.34
2023-05-06T01:58:00.201Z,72.06
2023-05-06T02:00:28.341Z,71.58
2023-05-06T02:02:56.279Z,71.65
2023-05-06T02:05:24.311Z,71.59
2023-05-06T02:07:52.904Z,71.49
2023-05-06T02:10:20.980Z,71.31
2023-05-06T02:12:54.183Z,71.45
2023-05-06T02:15:22.032Z,71.21
2023-05-06T02:17:49.920Z,70.84
2023-05-06T02:20:17.692Z,70.80
2023-05-06T02:22:45.548Z,70.88
2023-05-06T02:25:13.370Z,70.88
2023-05-06T02:27:41.413Z,70.48
2023-05-06T02:30:09.535Z,70.28
2023-05-06T02:32:37.492Z,70.31
2023-05-06T02:35:06.242Z,70.15
2023-05-06T02:37:34.049Z,70.24
2023-05-06T02:40:02.774Z,70.32
2023-05-06T02:42:34.486Z,70.25
2023-05-06T02:45:02.681Z,69.83
2023-05-06T02:47:33.425Z,69.74
2023-05-06T02:50:01.365Z,69.51
2023-05-06T02:52:29.661Z,69.50
2023-05-06T02:54:57.337Z,69.73
2023-05-06T02:57:25.256Z,69.69
2023-05-06T02:59:53.025Z,69.30
2023-05-06T03:02:20.753Z,69.34
2023-05-06T03:04:48.489Z,69.62
2023-05-06T03:07:16.404Z,69.62
2023-05-06T03:09:44.831Z,69.57
2023-05-06T03:12:12.868Z,69.57
2023-05-06T03:14:40.826Z,69.53
2023-05-06T03:17:08.595Z,69.67
2023-05-06T03:19:36.959Z,69.67
2023-05-06T03:22:05.922Z,69.87
2023-05-06T03:24:34.261Z,70.05
2023-05-06T03:27:03.575Z,69.84
2023-05-06T03:29:31.653Z,69.56
2023-05-06T03:32:05.721Z,69.41
2023-05-06T03:34:37.873Z,69.53
2023-05-06T03:37:06.266Z,69.72
2023-05-06T03:39:34.606Z,69.99
2023-05-06T03:42:02.721Z,69.60
2023-05-06T03:44:32.610Z,69.72
2023-05-06T03:47:00.981Z,69.80
2023-05-06T03:49:29.886Z,69.80
2023-05-06T03:51:58.064Z,69.79
2023-05-06T03:54:26.258Z,69.78
2023-05-06T03:56:54.351Z,69.80
2023-05-06T03:59:22.257Z,69.64
2023-05-06T04:01:51.304Z,69.34
2023-05-06T04:04:19.598Z,69.44
2023-05-06T04:06:47.466Z,69.57
2023-05-06T04:09:15.606Z,69.30
2023-05-06T04:11:43.628Z,69.49
2023-05-06T04:14:12.592Z,69.40
2023-05-06T04:16:40.769Z,69.64
2023-05-06T04:19:09.289Z,69.84
2023-05-06T04:21:37.354Z,69.66
2023-05-06T04:24:08.508Z,69.76
2023-05-06T04:26:39.061Z,69.61
2023-05-06T04:29:08.123Z,69.73
2023-05-06T04:31:39.945Z,69.80
2023-05-06T04:34:11.119Z,69.92
2023-05-06T04:36:40.720Z,69.68
2023-05-06T04:39:36.936Z,69.84
2023-05-06T04:42:05.541Z,69.73
2023-05-06T04:44:39.188Z,69.79
2023-05-06T04:47:09.322Z,69.74
2023-05-06T04:49:37.662Z,69.80
2023-05-06T04:52:06.156Z,69.89
2023-05-06T04:54:34.478Z,69.76
2023-05-06T04:57:03.350Z,69.46
2023-05-06T04:59:32.410Z,69.56
2023-05-06T05:02:00.632Z,69.69
2023-05-06T05:04:28.598Z,69.57
2023-05-06T05:06:56.373Z,69.35
2023-05-06T05:09:24.474Z,69.59
2023-05-06T05:11:52.767Z,69.31
2023-05-06T05:14:21.558Z,69.33
2023-05-06T05:16:49.481Z,69.25
2023-05-06T05:19:18.978Z,69.30
2023-05-06T05:21:47.654Z,69.05
2023-05-06T05:24:16.673Z,68.78
2023-05-06T05:26:44.546Z,68.54
2023-05-06T05:29:12.656Z,68.42
2023-05-06T05:31:40.684Z,68.31
2023-05-06T05:34:08.606Z,68.14
2023-05-06T05:36:38.031Z,68.10
2023-05-06T05:39:09.288Z,68.08
2023-05-06T05:41:39.501Z,67.99
2023-05-06T05:44:07.506Z,67.85
2023-05-06T05:46:36.081Z,67.85
2023-05-06T05:49:04.356Z,67.46
2023-05-06T05:51:32.657Z,67.25
2023-05-06T05:54:01.859Z,67.27
2023-05-06T05:56:29.614Z,66.95
2023-05-06T05:58:57.687Z,66.56
2023-05-06T06:01:25.967Z,66.38
2023-05-06T06:03:55.042Z,66.38
2023-05-06T06:06:24.289Z,66.25
2023-05-06T06:08:52.685Z,66.16
2023-05-06T06:11:22.460Z,66.28
2023-05-06T06:13:50.758Z,66.17
2023-05-06T06:16:18.516Z,65.88
2023-05-06T06:18:46.318Z,65.79
2023-05-06T06:21:14.302Z,65.66
2023-05-06T06:23:42.387Z,65.65
2023-05-06T06:26:12.361Z,65.33
2023-05-06T06:28:40.392Z,65.07
2023-05-06T06:31:08.136Z,65.01
2023-05-06T06:33:36.277Z,64.82
2023-05-06T06:36:04.369Z,64.17
2023-05-06T06:38:32.181Z,63.70
2023-05-06T06:41:00.473Z,63.92
2023-05-06T06:43:28.236Z,63.66
2023-05-06T06:46:01.593Z,63.52
2023-05-06T06:48:29.537Z,63.50
2023-05-06T06:50:57.340Z,63.38
2023-05-06T06:53:25.164Z,63.19
2023-05-06T06:55:53.008Z,63.08
2023-05-06T06:58:20.751Z,62.84
2023-05-06T07:00:48.509Z,62.45
2023-05-06T07:03:19.522Z,62.35
2023-05-06T07:05:49.346Z,62.64
2023-05-06T07:08:17.260Z,62.53
2023-05-06T07:10:45.158Z,62.59
2023-05-06T07:13:12.956Z,62.45
2023-05-06T07:15:40.876Z,61.86
2023-05-06T07:18:09.698Z,61.06
2023-05-06T07:20:37.465Z,60.58
2023-05-06T07:23:05.364Z,60.72
2023-05-06T07:25:33.224Z,60.58
2023-05-06T07:28:01.023Z,59.88
2023-05-06T07:40:40.108Z,58.29
2023-05-06T07:43:08.446Z,58.10
2023-05-06T07:45:36.327Z,57.91
2023-05-06T07:48:04.892Z,58.00
2023-05-06T07:50:32.829Z,57.87
2023-05-06T07:53:00.701Z,57.34
2023-05-06T07:55:28.602Z,56.86
2023-05-06T07:57:56.435Z,56.53
2023-05-06T08:00:24.268Z,55.93
2023-05-06T08:02:52.065Z,55.64
2023-05-06T08:05:20.134Z,55.52
2023-05-06T08:07:47.889Z,55.43
2023-05-06T08:10:15.885Z,55.82
2023-05-06T08:12:43.734Z,55.52
2023-05-06T08:15:12.302Z,55.19
2023-05-06T08:17:40.638Z,55.44
2023-05-06T08:20:08.903Z,55.50
2023-05-06T08:22:36.784Z,55.45
2023-05-06T08:25:04.982Z,54.82
2023-05-06T08:27:32.821Z,55.07
2023-05-06T08:30:00.614Z,55.40
2023-05-06T08:32:28.458Z,54.94
2023-05-06T08:34:56.216Z,54.87
2023-05-06T08:37:23.950Z,55.36
2023-05-06T08:39:51.875Z,55.52
2023-05-06T08:42:21.631Z,55.72
2023-05-06T08:44:52.507Z,55.91
2023-05-06T08:47:20.991Z,55.97
2023-05-06T08:49:49.566Z,56.09
2023-05-06T08:52:18.247Z,55.85
2023-05-06T08:54:46.547Z,55.86
2023-05-06T08:57:14.554Z,56.28
2023-05-06T08:59:42.666Z,56.55
2023-05-06T09:02:11.543Z,56.48
2023-05-06T09:04:40.432Z,56.38
2023-05-06T09:07:08.361Z,56.24
2023-05-06T09:09:36.261Z,55.95
2023-05-06T09:12:08.401Z,56.33
2023-05-06T09:14:36.615Z,56.45
2023-05-06T09:17:46.979Z,56.72
2023-05-06T09:20:13.561Z,56.87
2023-05-06T09:22:40.825Z,56.71
2023-05-06T09:25:08.304Z,56.46
2023-05-06T09:27:36.114Z,55.95
2023-05-06T09:30:05.574Z,55.99
2023-05-06T09:32:32.582Z,56.12
2023-05-06T09:34:59.808Z,55.70
2023-05-06T09:37:26.651Z,55.63
2023-05-06T09:39:55.215Z,55.61
2023-05-06T09:42:27.284Z,55.24
2023-05-06T09:44:56.217Z,55.05
2023-05-06T09:47:27.399Z,54.63
2023-05-06T09:49:58.624Z,54.32
2023-05-06T09:52:29.157Z,54.33
2023-05-06T09:54:56.886Z,54.24
2023-05-06T09:57:23.862Z,54.36
2023-05-06T09:59:53.668Z,54.38
2023-05-06T10:02:22.718Z,54.38
2023-05-06T10:04:50.027Z,54.27
2023-05-06T10:07:22.004Z,54.39
2023-05-06T10:09:50.879Z,54.23
2023-05-06T10:12:19.340Z,54.34
2023-05-06T10:14:46.593Z,54.44
2023-05-06T10:17:13.573Z,54.56
2023-05-06T10:19:46.181Z,54.50
2023-05-06T10:22:43.471Z,54.31
2023-05-06T10:25:18.621Z,54.51
2023-05-06T10:27:48.600Z,54.03
2023-05-06T10:30:16.457Z,54.34
2023-05-06T10:32:44.709Z,54.67
2023-05-06T10:35:45.838Z,54.81
2023-05-06T10:38:35.485Z,55.02
2023-05-06T10:41:03.201Z,55.30
2023-05-06T10:43:31.713Z,55.42
2023-05-06T10:46:15.767Z,56.21
2023-05-06T10:49:03.956Z,56.60
2023-05-06T10:51:31.159Z,57.01
2023-05-06T10:53:57.698Z,57.23
2023-05-06T10:56:24.919Z,56.97
2023-05-06T10:58:52.939Z,57.13
2023-05-06T11:01:26.787Z,57.37
2023-05-06T11:03:54.288Z,57.50
2023-05-06T11:06:36.261Z,57.19
2023-05-06T11:09:04.754Z,57.46
2023-05-06T11:11:47.611Z,57.81
2023-05-06T11:14:16.301Z,58.02
2023-05-06T11:16:49.602Z,58.29
2023-05-06T11:19:23.253Z,58.43
2023-05-06T11:21:50.934Z,58.93
2023-05-06T11:24:42.332Z,59.16
2023-05-06T11:27:10.409Z,59.23
2023-05-06T11:29:37.337Z,59.89
2023-05-06T11:32:07.832Z,59.90
2023-05-06T11:34:36.290Z,61.29
2023-05-06T11:37:05.625Z,61.57
2023-05-06T11:39:39.655Z,61.33
2023-05-06T11:42:08.402Z,62.03
2023-05-06T11:44:37.199Z,62.39
2023-05-06T11:47:06.053Z,63.05
2023-05-06T11:49:41.428Z,64.09
2023-05-06T11:52:12.166Z,64.32
2023-05-06T11:54:40.519Z,64.27
2023-05-06T11:57:07.938Z,64.27
2023-05-06T11:59:39.656Z,64.60
2023-05-06T12:02:10.004Z,65.43
2023-05-06T12:04:41.857Z,65.73
2023-05-06T12:07:10.311Z,66.43
2023-05-06T12:09:38.767Z,67.44
2023-05-06T12:12:06.410Z,68.16
2023-05-06T12:14:33.428Z,68.47
2023-05-06T12:17:00.162Z,69.42
2023-05-06T12:19:28.123Z,70.18
2023-05-06T12:21:55.043Z,70.93
2023-05-06T12:24:30.689Z,71.46
2023-05-06T12:26:57.038Z,71.64
2023-05-06T12:29:23.411Z,70.48
2023-05-06T12:32:08.556Z,71.13
2023-05-06T12:34:37.609Z,70.54
2023-05-06T12:37:05.288Z,70.56
2023-05-06T12:39:36.322Z,70.10
2023-05-06T12:42:03.285Z,70.74
2023-05-06T12:44:33.972Z,71.66
2023-05-06T12:47:01.978Z,72.12
2023-05-06T12:49:46.867Z,72.24
2023-05-06T12:52:14.001Z,72.03
2023-05-06T12:54:41.109Z,72.29
2023-05-06T12:57:07.743Z,72.63
2023-05-06T12:59:35.742Z,72.57
2023-05-06T13:02:03.617Z,72.92
2023-05-06T13:04:30.668Z,73.70
2023-05-06T13:06:57.950Z,73.79
2023-05-06T13:09:24.872Z,74.16
2023-05-06T13:11:51.276Z,74.28
2023-05-06T13:14:17.633Z,73.94
2023-05-06T13:16:44.816Z,74.41
2023-05-06T13:19:21.205Z,73.90
2023-05-06T13:21:58.119Z,74.84
2023-05-06T13:24:24.600Z,75.56
2023-05-06T13:26:51.297Z,75.46
2023-05-06T13:29:18.351Z,75.82
2023-05-06T13:31:44.845Z,76.29
2023-05-06T13:34:11.315Z,75.97
2023-05-06T13:36:38.222Z,76.38
2023-05-06T13:39:04.732Z,76.62
2023-05-06T13:41:32.028Z,76.19
2023-05-06T13:43:58.466Z,76.60
2023-05-06T13:46:26.602Z,76.20
2023-05-06T13:48:53.146Z,76.08
2023-05-06T13:51:19.565Z,76.50
2023-05-06T13:53:45.936Z,76.54
2023-05-06T13:56:12.242Z,76.52
2023-05-06T13:58:38.922Z,76.64
2023-05-06T14:01:05.531Z,76.26
2023-05-06T14:03:31.909Z,76.83
2023-05-06T14:05:58.418Z,76.54
2023-05-06T14:08:25.026Z,76.72
2023-05-06T14:10:51.372Z,76.97
2023-05-06T14:13:17.857Z,76.66
2023-05-06T14:15:44.428Z,77.06
2023-05-06T14:18:11.204Z,77.48
2023-05-06T14:20:37.636Z,77.14
2023-05-06T14:23:05.417Z,77.73
2023-05-06T14:25:32.433Z,77.59
2023-05-06T14:27:58.915Z,77.89
2023-05-06T14:30:25.476Z,77.89
2023-05-06T14:32:51.968Z,77.88
2023-05-06T14:35:18.373Z,78.09
2023-05-06T14:37:44.817Z,78.58
2023-05-06T14:40:11.896Z,78.77
2023-05-06T14:42:38.234Z,79.09
2023-05-06T14:45:05.537Z,78.82
2023-05-06T14:47:32.061Z,79.15
2023-05-06T14:49:58.475Z,79.55
2023-05-06T14:52:24.972Z,79.73
2023-05-06T14:54:52.043Z,79.52
2023-05-06T14:57:18.544Z,79.94
2023-05-06T14:59:45.449Z,79.70
2023-05-06T15:02:12.117Z,79.85
2023-05-06T15:04:38.667Z,79.93
2023-05-06T15:07:05.269Z,80.35
2023-05-06T15:09:31.937Z,80.10
2023-05-06T15:11:58.386Z,79.96
2023-05-06T15:14:25.141Z,80.09
2023-05-06T15:16:55.307Z,80.06
2023-05-06T15:19:22.191Z,80.42
2023-05-06T15:21:48.643Z,80.67
2023-05-06T15:24:15.110Z,80.83
2023-05-06T15:26:41.501Z,81.29
2023-05-06T15:29:08.100Z,81.75
2023-05-06T15:31:38.350Z,81.68
2023-05-06T15:34:10.384Z,81.74
2023-05-06T15:36:38.330Z,81.62
2023-05-06T15:39:05.225Z,81.26
2023-05-06T15:41:33.763Z,81.47
2023-05-06T15:44:02.577Z,81.49
2023-05-06T15:46:31.354Z,81.71
2023-05-06T15:49:21.152Z,82.06
2023-05-06T15:51:44.633Z,82.34
2023-05-06T15:54:11.009Z,82.98
2023-05-06T15:56:40.977Z,83.29
2023-05-06T15:59:08.335Z,83.42
2023-05-06T16:02:19.023Z,83.70
2023-05-06T16:04:23.698Z,83.65
2023-05-06T16:06:50.470Z,84.11
2023-05-06T16:09:16.918Z,84.41
2023-05-06T16:11:43.489Z,84.09
2023-05-06T16:14:09.960Z,83.98
2023-05-06T16:16:36.657Z,84.13
2023-05-06T16:19:03.962Z,84.55
2023-05-06T16:21:31.152Z,84.83
2023-05-06T16:23:57.887Z,84.87
2023-05-06T16:26:24.401Z,84.91
2023-05-06T16:28:51.407Z,84.96
2023-05-06T16:31:18.030Z,84.31
2023-05-06T16:33:44.543Z,84.48
2023-05-06T16:36:12.267Z,84.75
2023-05-06T16:38:38.988Z,84.57
2023-05-06T16:41:05.372Z,84.52
2023-05-06T16:43:32.394Z,84.83
2023-05-06T16:45:59.311Z,84.29
2023-05-06T16:48:27.519Z,84.50
2023-05-06T16:50:55.220Z,84.17
2023-05-06T16:53:22.484Z,84.52
2023-05-06T16:55:49.408Z,84.76
2023-05-06T16:58:18.058Z,85.10
2023-05-06T17:00:44.724Z,84.70
2023-05-06T17:03:11.150Z,84.68
2023-05-06T17:05:39.152Z,84.75
2023-05-06T17:08:06.905Z,85.01
2023-05-06T17:10:36.326Z,84.70
2023-05-06T17:13:04.470Z,84.95
2023-05-06T17:15:31.136Z,84.34
2023-05-06T17:17:57.542Z,84.24
2023-05-06T17:20:24.571Z,84.47
2023-05-06T17:22:50.980Z,84.75
2023-05-06T17:25:17.482Z,85.08
2023-05-06T17:27:44.575Z,85.27
2023-05-06T17:30:12.395Z,85.62
2023-05-06T17:32:41.709Z,85.96
2023-05-06T17:35:10.107Z,85.88
2023-05-06T17:37:37.001Z,85.40
2023-05-06T17:40:05.222Z,85.16
2023-05-06T17:42:33.741Z,85.63
2023-05-06T17:45:00.943Z,85.77
2023-05-06T17:47:29.357Z,85.75
2023-05-06T17:49:56.564Z,85.78
2023-05-06T17:52:25.721Z,85.53
2023-05-06T17:55:10.765Z,85.69
2023-05-06T17:57:39.640Z,85.62
2023-05-06T18:00:06.874Z,85.89
2023-05-06T18:02:38.529Z,86.23
2023-05-06T18:05:06.221Z,86.16
2023-05-06T18:07:35.103Z,86.07
2023-05-06T18:10:01.548Z,86.35
2023-05-06T18:12:27.997Z,86.73
2023-05-06T18:14:56.262Z,86.51
2023-05-06T18:17:23.680Z,86.37
2023-05-06T18:19:50.205Z,86.37
2023-05-06T18:22:16.571Z,86.16
2023-05-06T18:24:42.918Z,86.03
2023-05-06T18:27:09.398Z,86.06
2023-05-06T18:29:35.782Z,86.15
2023-05-06T18:32:02.370Z,86.07
2023-05-06T18:34:28.914Z,86.05
2023-05-06T18:36:57.189Z,86.43
2023-05-06T18:39:23.848Z,86.19
2023-05-06T18:41:50.192Z,86.15
2023-05-06T18:44:16.519Z,86.24
2023-05-06T18:46:42.851Z,86.46
2023-05-06T18:49:09.219Z,86.78
2023-05-06T18:51:36.288Z,87.14
2023-05-06T18:54:02.791Z,87.21
2023-05-06T18:56:29.247Z,87.05
2023-05-06T18:58:55.872Z,87.10
2023-05-06T19:01:22.467Z,87.31
2023-05-06T19:03:49.021Z,87.23
2023-05-06T19:06:15.578Z,87.19
2023-05-06T19:08:41.992Z,87.25
2023-05-06T19:11:15.389Z,87.22
2023-05-06T19:13:43.082Z,87.41
2023-05-06T19:16:09.532Z,87.42
2023-05-06T19:18:36.026Z,87.36
2023-05-06T19:21:02.373Z,87.30
2023-05-06T19:23:28.725Z,87.23
2023-05-06T19:25:55.154Z,87.37
2023-05-06T19:28:21.552Z,87.36
2023-05-06T19:30:48.087Z,87.47
2023-05-06T19:33:15.661Z,87.53
2023-05-06T19:35:41.993Z,87.32
2023-05-06T19:38:08.742Z,87.28
2023-05-06T19:40:35.332Z,87.48
2023-05-06T19:43:03.271Z,87.50
2023-05-06T19:45:31.859Z,87.69
2023-05-06T19:47:59.234Z,87.67
2023-05-06T19:50:30.980Z,87.61
2023-05-06T19:52:57.361Z,87.63
2023-05-06T19:55:24.022Z,87.62
2023-05-06T19:57:50.519Z,87.92
2023-05-06T20:00:19.424Z,88.02
2023-05-06T20:02:46.138Z,88.08
2023-05-06T20:05:13.309Z,88.11
2023-05-06T20:07:40.604Z,88.09
2023-05-06T20:10:09.347Z,88.17
2023-05-06T20:12:35.768Z,88.38
2023-05-06T20:15:03.198Z,88.37
2023-05-06T20:17:29.677Z,88.25
2023-05-06T20:19:59.028Z,88.20
2023-05-06T20:22:25.770Z,88.18
2023-05-06T20:24:52.535Z,88.25
2023-05-06T20:27:22.314Z,88.17
2023-05-06T20:29:50.860Z,88.47
2023-05-06T20:32:17.208Z,88.54
2023-05-06T20:34:43.558Z,88.26
2023-05-06T20:37:09.948Z,88.26
2023-05-06T20:39:36.344Z,88.51
2023-05-06T20:42:02.848Z,88.60
2023-05-06T20:44:29.206Z,88.53
2023-05-06T20:46:55.569Z,88.46
2023-05-06T20:49:22.304Z,88.21
2023-05-06T20:51:48.665Z,88.21
2023-05-06T20:54:15.060Z,88.36
2023-05-06T20:56:42.326Z,88.46
2023-05-06T20:59:08.744Z,88.52
2023-05-06T21:01:35.348Z,88.59
2023-05-06T21:04:04.019Z,88.62
2023-05-06T21:06:31.441Z,88.49
2023-05-06T21:08:57.913Z,88.54
2023-05-06T21:11:25.102Z,88.76
2023-05-06T21:13:51.431Z,88.75
2023-05-06T21:16:17.983Z,88.48
2023-05-06T21:18:44.505Z,88.39
2023-05-06T21:21:10.897Z,88.54
2023-05-06T21:23:37.559Z,88.65
2023-05-06T21:26:03.998Z,88.69
2023-05-06T21:28:30.411Z,88.64
2023-05-06T21:30:56.848Z,88.65
2023-05-06T21:33:23.178Z,88.67
2023-05-06T21:35:49.632Z,88.78
2023-05-06T21:38:15.945Z,88.78
2023-05-06T21:40:42.286Z,88.60
2023-05-06T21:43:08.632Z,88.51
2023-05-06T21:45:35.699Z,88.64
2023-05-06T21:48:02.172Z,88.81
2023-05-06T21:50:28.666Z,88.77
2023-05-06T21:52:55.187Z,88.75
2023-05-06T21:55:21.852Z,88.61
2023-05-06T21:57:48.743Z,88.60
2023-05-06T22:00:15.434Z,88.64
2023-05-06T22:02:42.058Z,88.68
2023-05-06T22:05:09.041Z,88.56
2023-05-06T22:07:35.944Z,88.44
2023-05-06T22:10:03.685Z,88.36
2023-05-06T22:12:30.848Z,88.54
2023-05-06T22:14:57.188Z,88.47
2023-05-06T22:17:23.591Z,88.54
2023-05-06T22:19:50.923Z,88.58
2023-05-06T22:22:17.760Z,88.49
2023-05-06T22:24:44.218Z,88.54
2023-05-06T22:27:10.749Z,88.56
2023-05-06T22:29:37.100Z,88.43
2023-05-06T22:32:03.769Z,88.49
2023-05-06T22:34:30.285Z,88.56
2023-05-06T22:36:58.225Z,88.56
2023-05-06T22:42:32.178Z,88.31
2023-05-06T22:44:59.918Z,88.32
2023-05-06T22:47:27.759Z,88.16
2023-05-06T22:49:55.601Z,88.12
2023-05-06T22:52:25.392Z,88.08
2023-05-06T22:54:54.093Z,87.91
2023-05-06T22:57:25.365Z,87.85
2023-05-06T22:59:53.195Z,87.87
2023-05-06T23:02:21.290Z,87.81
2023-05-06T23:04:49.133Z,87.99
2023-05-06T23:07:16.884Z,88.06
2023-05-06T23:09:44.644Z,88.03
2023-05-06T23:12:12.598Z,88.24
2023-05-06T23:14:40.449Z,88.36
2023-05-06T23:17:08.277Z,88.42
2023-05-06T23:19:36.319Z,88.57
2023-05-06T23:22:04.556Z,88.47
2023-05-06T23:24:32.288Z,88.37
2023-05-06T23:27:00.021Z,88.46
2023-05-06T23:29:27.808Z,88.62
2023-05-06T23:31:55.808Z,88.65
2023-05-06T23:34:23.610Z,88.80
2023-05-06T23:36:51.479Z,88.72
2023-05-06T23:39:19.288Z,88.69
2023-05-06T23:41:47.056Z,88.57
2023-05-06T23:44:14.914Z,88.60
2023-05-06T23:46:42.658Z,88.71
2023-05-06T23:49:10.643Z,88.77
2023-05-06T23:51:38.337Z,88.67
2023-05-06T23:54:06.159Z,88.71
2023-05-06T23:56:35.202Z,88.81
2023-05-06T23:59:02.986Z,88.91
